Time;durP1;ratioP1;P1;durP2;ratioP2;P2;SDS_P1;SDS_P2;PMS_P1;PMS_P2;Temp;Humidity;BMP_temperature;BMP_pressure;BME280_temperature;BME280_humidity;BME280_pressure;Samples;Min_cycle;Max_cycle;Signal;HPM_P1;HPM_P2
2022/03/15 00:00:24;;;;;;;28.77;11.18;;;2.60;99.90;;;;;;5010940;28;20508;-66
2022/03/15 00:02:50;;;;;;;29.23;10.77;;;2.70;99.90;;;;;;5009580;28;20045;-64
2022/03/15 00:05:20;;;;;;;24.05;10.15;;;2.70;99.90;;;;;;5010162;28;20762;-65
2022/03/15 00:07:47;;;;;;;21.10;8.70;;;2.80;99.90;;;;;;5005934;28;20036;-63
2022/03/15 00:10:15;;;;;;;22.13;8.82;;;2.70;99.90;;;;;;5010351;28;20269;-64
2022/03/15 00:12:41;;;;;;;22.08;9.15;;;2.50;99.90;;;;;;5012991;28;20026;-65
2022/03/15 00:15:08;;;;;;;20.20;8.50;;;2.50;99.90;;;;;;5009786;28;20034;-65
2022/03/15 00:17:38;;;;;;;21.25;8.85;;;2.60;99.90;;;;;;5025334;28;20026;-64
2022/03/15 00:20:05;;;;;;;20.03;8.77;;;2.60;99.90;;;;;;5009282;28;20029;-65
2022/03/15 00:22:34;;;;;;;20.65;8.55;;;2.70;99.90;;;;;;5021758;28;20032;-65
2022/03/15 00:25:02;;;;;;;19.02;8.43;;;2.80;99.90;;;;;;5010167;28;20456;-65
2022/03/15 00:27:28;;;;;;;19.90;8.38;;;2.90;99.90;;;;;;5010314;28;20112;-66
2022/03/15 00:29:54;;;;;;;19.67;8.43;;;2.90;99.90;;;;;;5014619;28;20041;-65
2022/03/15 00:32:20;;;;;;;19.98;8.85;;;2.80;99.90;;;;;;5021263;28;20033;-66
2022/03/15 00:34:47;;;;;;;20.30;8.73;;;2.80;99.90;;;;;;5028964;28;20037;-64
2022/03/15 00:37:13;;;;;;;17.98;8.90;;;2.90;99.90;;;;;;5018238;28;20579;-65
2022/03/15 00:39:39;;;;;;;20.70;8.82;;;2.90;99.90;;;;;;5019979;28;20117;-65
2022/03/15 00:42:05;;;;;;;21.77;9.20;;;2.70;99.90;;;;;;5007358;28;20097;-64
2022/03/15 00:44:30;;;;;;;23.35;9.23;;;2.70;99.90;;;;;;5028400;28;20026;-65
2022/03/15 00:46:56;;;;;;;20.48;9.02;;;2.70;99.90;;;;;;5013157;28;20441;-65
2022/03/15 00:49:23;;;;;;;19.23;8.35;;;2.60;99.90;;;;;;5009477;28;20033;-65
2022/03/15 00:51:49;;;;;;;21.30;8.68;;;2.50;99.90;;;;;;5009421;28;20038;-64
2022/03/15 00:54:15;;;;;;;23.17;8.38;;;2.60;99.90;;;;;;5010784;28;20472;-65
2022/03/15 00:56:40;;;;;;;17.95;7.95;;;2.50;99.90;;;;;;5019071;28;20036;-65
2022/03/15 00:59:08;;;;;;;18.58;7.70;;;2.60;99.90;;;;;;5019998;28;20233;-65
2022/03/15 01:01:34;;;;;;;18.63;8.25;;;2.60;99.90;;;;;;5009794;28;20030;-65
2022/03/15 01:03:59;;;;;;;20.50;7.85;;;2.70;99.90;;;;;;5015852;28;20100;-65
2022/03/15 01:06:25;;;;;;;14.55;6.85;;;2.80;99.90;;;;;;5009900;28;20053;-65
2022/03/15 01:08:50;;;;;;;16.23;6.70;;;2.80;99.90;;;;;;5009743;28;20041;-65
2022/03/15 01:11:16;;;;;;;18.27;7.05;;;2.90;99.90;;;;;;5009791;28;20033;-65
2022/03/15 01:13:42;;;;;;;21.25;8.25;;;2.90;99.90;;;;;;5009577;28;20473;-65
2022/03/15 01:16:07;;;;;;;20.42;7.85;;;2.90;99.90;;;;;;5010088;28;20036;-65
2022/03/15 01:18:34;;;;;;;12.55;6.38;;;2.70;99.90;;;;;;5009152;28;20026;-65
2022/03/15 01:20:59;;;;;;;21.80;7.25;;;2.70;99.90;;;;;;5007916;28;20060;-65
2022/03/15 01:23:25;;;;;;;18.98;7.18;;;2.90;99.90;;;;;;5009256;28;20053;-65
2022/03/15 01:25:51;;;;;;;15.55;7.00;;;2.90;99.90;;;;;;5010620;28;20042;-64
2022/03/15 01:28:17;;;;;;;15.60;6.82;;;2.90;99.90;;;;;;5008959;28;20041;-65
2022/03/15 01:30:43;;;;;;;17.40;6.47;;;2.90;99.90;;;;;;5009269;28;20562;-65
2022/03/15 01:33:08;;;;;;;18.42;6.82;;;2.90;99.90;;;;;;5013110;28;20148;-65
2022/03/15 01:35:34;;;;;;;19.58;8.38;;;2.90;99.90;;;;;;5009086;28;20125;-65
2022/03/15 01:38:00;;;;;;;18.48;7.60;;;3.00;99.90;;;;;;5008194;28;20105;-65
2022/03/15 01:40:26;;;;;;;17.73;6.97;;;2.80;99.90;;;;;;5009057;28;20030;-66
2022/03/15 01:42:52;;;;;;;19.35;7.60;;;2.80;99.90;;;;;;5017227;28;20026;-64
2022/03/15 01:45:17;;;;;;;16.70;7.78;;;2.80;99.90;;;;;;5028323;28;20087;-65
2022/03/15 01:47:43;;;;;;;22.58;7.63;;;2.80;99.90;;;;;;5013425;28;20102;-65
2022/03/15 01:50:10;;;;;;;14.18;6.90;;;2.80;99.90;;;;;;5007685;28;20057;-65
2022/03/15 01:52:35;;;;;;;19.42;7.28;;;2.70;99.90;;;;;;5008904;28;20109;-65
2022/03/15 01:55:01;;;;;;;18.08;7.68;;;2.80;99.90;;;;;;5008457;28;20463;-65
2022/03/15 01:57:27;;;;;;;21.90;8.27;;;2.90;99.90;;;;;;5008887;28;20101;-65
2022/03/15 01:59:53;;;;;;;17.63;7.60;;;2.80;99.90;;;;;;5009616;28;20030;-65
2022/03/15 02:02:18;;;;;;;19.00;8.55;;;2.70;99.90;;;;;;5011975;28;20030;-65
2022/03/15 02:04:44;;;;;;;17.95;7.80;;;2.70;99.90;;;;;;5019011;28;20041;-65
2022/03/15 02:07:12;;;;;;;18.52;8.15;;;2.60;99.90;;;;;;5012349;28;20499;-65
2022/03/15 02:09:40;;;;;;;17.15;7.35;;;2.60;99.90;;;;;;5012067;28;20500;-65
2022/03/15 02:12:06;;;;;;;18.88;7.97;;;2.60;99.90;;;;;;5012456;28;20022;-65
2022/03/15 02:14:32;;;;;;;18.23;7.22;;;2.60;99.90;;;;;;5012429;28;20115;-65
2022/03/15 02:16:58;;;;;;;19.23;8.23;;;2.60;99.90;;;;;;5012134;28;20484;-65
2022/03/15 02:19:24;;;;;;;15.55;7.25;;;2.70;99.90;;;;;;5012893;28;20453;-66
2022/03/15 02:21:50;;;;;;;18.50;7.47;;;2.70;99.90;;;;;;5012692;28;20365;-65
2022/03/15 02:24:17;;;;;;;12.77;6.53;;;2.60;99.90;;;;;;5021222;28;20038;-65
2022/03/15 02:26:43;;;;;;;16.98;7.20;;;2.60;99.90;;;;;;5024140;28;20026;-65
2022/03/15 02:29:09;;;;;;;21.33;7.50;;;2.60;99.90;;;;;;5019523;28;20025;-65
2022/03/15 02:31:34;;;;;;;14.95;7.35;;;2.70;99.90;;;;;;5018086;28;20030;-65
2022/03/15 02:34:00;;;;;;;20.85;7.50;;;2.70;99.90;;;;;;5021409;28;20046;-66
2022/03/15 02:36:26;;;;;;;15.32;7.00;;;2.70;99.90;;;;;;5011230;28;20030;-66
2022/03/15 02:38:51;;;;;;;19.48;7.43;;;2.60;99.90;;;;;;5019384;28;20623;-65
2022/03/15 02:41:17;;;;;;;14.85;7.05;;;2.60;99.90;;;;;;5024257;28;20119;-65
2022/03/15 02:43:44;;;;;;;17.02;7.45;;;2.60;99.90;;;;;;5012618;28;20124;-65
2022/03/15 02:46:10;;;;;;;20.77;8.30;;;2.60;99.90;;;;;;5010672;28;20057;-65
2022/03/15 02:48:36;;;;;;;18.50;8.07;;;2.60;99.90;;;;;;5018510;28;20034;-64
2022/03/15 02:51:08;;;;;;;16.95;7.70;;;2.50;99.90;;;;;;5012386;28;20034;-65
2022/03/15 02:53:36;;;;;;;15.13;6.80;;;2.40;99.90;;;;;;5012392;28;20495;-64
2022/03/15 02:56:02;;;;;;;17.90;6.50;;;2.40;99.90;;;;;;5012528;28;20063;-65
2022/03/15 02:58:28;;;;;;;18.02;7.70;;;2.40;99.90;;;;;;5012439;28;20476;-65
2022/03/15 03:00:54;;;;;;;20.90;7.93;;;2.40;99.90;;;;;;5014823;28;20464;-65
2022/03/15 03:03:22;;;;;;;17.25;7.68;;;2.50;99.90;;;;;;5011824;28;20092;-65
2022/03/15 03:05:47;;;;;;;15.40;7.70;;;2.40;99.90;;;;;;5014606;28;20034;-66
2022/03/15 03:08:16;;;;;;;14.52;6.63;;;2.40;99.90;;;;;;5010895;28;20136;-65
2022/03/15 03:10:41;;;;;;;13.48;5.85;;;2.40;99.90;;;;;;5026999;28;20045;-65
2022/03/15 03:13:11;;;;;;;16.88;7.13;;;2.50;99.90;;;;;;5018036;28;20036;-65
2022/03/15 03:15:36;;;;;;;20.02;7.15;;;2.60;99.90;;;;;;5012196;28;20061;-65
2022/03/15 03:18:02;;;;;;;14.88;5.97;;;2.70;99.90;;;;;;5009750;28;20068;-64
2022/03/15 03:20:29;;;;;;;13.93;6.30;;;2.70;99.90;;;;;;5015555;28;20046;-65
2022/03/15 03:22:55;;;;;;;15.85;7.20;;;2.70;99.90;;;;;;5012891;28;20089;-65
2022/03/15 03:25:21;;;;;;;15.25;6.93;;;2.60;99.90;;;;;;5028732;28;20754;-65
2022/03/15 03:27:49;;;;;;;16.10;7.40;;;2.50;99.90;;;;;;5016319;28;20038;-65
2022/03/15 03:30:16;;;;;;;20.05;7.57;;;2.50;99.90;;;;;;5010162;28;20100;-65
2022/03/15 03:32:41;;;;;;;19.80;6.57;;;2.40;99.90;;;;;;5022051;28;20077;-65
2022/03/15 03:35:08;;;;;;;14.00;6.45;;;2.40;99.90;;;;;;5017359;28;20041;-65
2022/03/15 03:37:34;;;;;;;25.38;6.30;;;2.50;99.90;;;;;;5010852;28;20113;-65
2022/03/15 03:40:00;;;;;;;15.60;6.45;;;2.60;99.90;;;;;;5022673;28;20075;-65
2022/03/15 03:42:26;;;;;;;18.17;7.78;;;2.70;99.90;;;;;;5020787;28;20042;-65
2022/03/15 03:44:51;;;;;;;15.38;7.72;;;2.60;99.90;;;;;;5018171;28;20041;-64
2022/03/15 03:47:17;;;;;;;15.13;7.85;;;2.40;99.90;;;;;;5014405;28;20026;-64
2022/03/15 03:49:43;;;;;;;16.23;7.60;;;2.30;99.90;;;;;;5010988;28;20065;-65
2022/03/15 03:52:12;;;;;;;15.93;6.85;;;2.30;99.90;;;;;;4998124;28;20109;-65
2022/03/15 03:54:38;;;;;;;16.75;6.47;;;2.30;99.90;;;;;;5012031;28;20125;-66
2022/03/15 03:57:04;;;;;;;16.38;6.60;;;2.40;99.90;;;;;;5023173;28;20025;-65
2022/03/15 03:59:30;;;;;;;17.38;6.82;;;2.40;99.90;;;;;;5030141;28;20037;-65
2022/03/15 04:01:56;;;;;;;14.07;6.15;;;2.40;99.90;;;;;;5011716;28;20044;-65
2022/03/15 04:04:21;;;;;;;17.20;6.65;;;2.30;99.90;;;;;;5009492;28;20061;-66
2022/03/15 04:06:47;;;;;;;15.13;6.13;;;2.40;99.90;;;;;;5009400;28;20053;-66
2022/03/15 04:09:13;;;;;;;14.30;6.38;;;2.40;99.90;;;;;;5012306;28;20029;-67
2022/03/15 04:11:40;;;;;;;15.32;6.60;;;2.50;99.90;;;;;;5019208;28;20464;-66
2022/03/15 04:14:07;;;;;;;13.88;5.75;;;2.50;99.90;;;;;;5017808;28;20373;-67
2022/03/15 04:16:32;;;;;;;15.80;6.35;;;2.50;99.90;;;;;;5011866;28;20033;-66
2022/03/15 04:18:58;;;;;;;12.70;5.90;;;2.60;99.90;;;;;;5010272;28;20087;-67
2022/03/15 04:21:24;;;;;;;14.60;5.70;;;2.70;99.90;;;;;;5009732;28;20041;-67
2022/03/15 04:23:54;;;;;;;16.25;5.78;;;2.70;99.90;;;;;;5009892;28;20041;-68
2022/03/15 04:26:21;;;;;;;15.03;5.93;;;2.80;99.90;;;;;;5009843;28;20029;-67
2022/03/15 04:28:46;;;;;;;13.23;5.68;;;2.80;99.90;;;;;;5009039;28;20032;-67
2022/03/15 04:31:12;;;;;;;16.65;5.70;;;2.90;99.90;;;;;;5009706;28;20030;-66
2022/03/15 04:33:38;;;;;;;13.15;5.32;;;3.00;99.90;;;;;;5010561;28;20042;-66
2022/03/15 04:36:04;;;;;;;15.15;5.85;;;3.00;99.90;;;;;;5008126;28;20040;-64
2022/03/15 04:38:30;;;;;;;16.88;6.65;;;3.00;99.90;;;;;;5008605;28;20051;-67
2022/03/15 04:40:58;;;;;;;15.27;6.70;;;3.10;99.90;;;;;;5008467;28;20125;-66
2022/03/15 04:43:23;;;;;;;15.48;6.47;;;3.00;99.90;;;;;;5008167;28;20018;-67
2022/03/15 04:45:50;;;;;;;13.95;5.80;;;2.90;99.90;;;;;;5008820;28;20033;-67
2022/03/15 04:48:23;;;;;;;12.27;5.68;;;2.90;99.90;;;;;;5009036;28;20084;-67
2022/03/15 04:50:49;;;;;;;15.15;5.85;;;2.80;99.90;;;;;;5006788;28;20032;-66
2022/03/15 04:53:15;;;;;;;14.75;5.47;;;2.90;99.90;;;;;;5009240;28;20373;-67
2022/03/15 04:55:40;;;;;;;12.60;5.88;;;2.90;99.90;;;;;;5009589;28;20046;-67
2022/03/15 04:58:06;;;;;;;11.45;5.25;;;2.90;99.90;;;;;;5008141;28;20026;-67
2022/03/15 05:00:32;;;;;;;15.80;6.18;;;2.90;99.90;;;;;;5009529;28;20042;-67
2022/03/15 05:02:58;;;;;;;16.17;6.25;;;2.90;99.90;;;;;;5008968;28;20041;-68
2022/03/15 05:05:24;;;;;;;11.50;5.25;;;2.90;99.90;;;;;;5008889;28;20053;-68
2022/03/15 05:07:49;;;;;;;13.50;5.80;;;2.90;99.90;;;;;;5008569;28;21632;-69
2022/03/15 05:13:00;;;;;;;15.13;6.53;;;3.00;99.90;;;;;;5009658;28;20419;-69
2022/03/15 05:15:27;;;;;;;18.17;5.70;;;3.00;99.90;;;;;;5009224;28;20180;-67
2022/03/15 05:17:52;;;;;;;14.57;5.97;;;3.00;99.90;;;;;;5009417;28;20034;-67
2022/03/15 05:20:18;;;;;;;12.55;6.18;;;3.00;99.90;;;;;;5010239;28;20039;-68
2022/03/15 05:22:44;;;;;;;12.75;6.13;;;3.10;99.90;;;;;;5007879;28;20120;-68
2022/03/15 05:25:11;;;;;;;15.02;5.88;;;3.00;99.90;;;;;;5007925;28;20033;-68
2022/03/15 05:27:37;;;;;;;12.80;5.63;;;2.90;99.90;;;;;;5008498;28;20439;-67
2022/03/15 05:30:04;;;;;;;15.25;5.93;;;2.80;99.90;;;;;;5012365;28;20092;-65
2022/03/15 05:32:30;;;;;;;15.23;5.95;;;2.90;99.90;;;;;;5020262;28;20030;-68
2022/03/15 05:34:56;;;;;;;14.15;6.43;;;2.90;99.90;;;;;;5012610;28;20046;-68
2022/03/15 05:37:22;;;;;;;13.48;5.65;;;3.00;99.90;;;;;;5008081;28;20052;-67
2022/03/15 05:39:48;;;;;;;15.70;5.38;;;3.00;99.90;;;;;;5009261;28;20026;-67
2022/03/15 05:42:13;;;;;;;16.63;5.90;;;3.00;99.90;;;;;;5009119;28;20037;-67
2022/03/15 05:44:40;;;;;;;14.02;6.20;;;3.00;99.90;;;;;;5009735;28;20068;-68
2022/03/15 05:47:07;;;;;;;15.73;5.43;;;3.10;99.90;;;;;;5008977;28;20037;-65
2022/03/15 05:49:32;;;;;;;12.10;5.45;;;3.10;99.90;;;;;;5009287;28;20033;-68
2022/03/15 05:51:58;;;;;;;15.60;5.50;;;3.20;99.90;;;;;;5009626;28;20044;-67
2022/03/15 05:54:24;;;;;;;12.77;5.45;;;3.20;99.90;;;;;;5008228;28;20137;-68
2022/03/15 05:56:50;;;;;;;11.70;5.40;;;3.20;99.90;;;;;;5009375;28;20472;-68
2022/03/15 05:59:15;;;;;;;14.48;7.40;;;3.30;99.90;;;;;;5007518;28;20064;-68
2022/03/15 06:01:41;;;;;;;11.68;5.85;;;3.30;99.90;;;;;;5009434;28;20057;-67
2022/03/15 06:04:09;;;;;;;17.40;5.97;;;3.30;99.90;;;;;;5008716;28;20062;-65
2022/03/15 06:06:34;;;;;;;21.02;8.43;;;3.40;99.90;;;;;;5009040;28;20468;-68
2022/03/15 06:09:00;;;;;;;16.33;6.95;;;3.50;99.90;;;;;;5009771;28;20029;-69
2022/03/15 06:11:26;;;;;;;22.20;6.97;;;3.50;99.90;;;;;;5008503;28;20088;-69
2022/03/15 06:13:52;;;;;;;14.82;5.47;;;3.40;99.90;;;;;;4989545;28;20405;-68
2022/03/15 06:16:17;;;;;;;12.68;5.43;;;3.50;99.90;;;;;;4987723;28;20172;-68
2022/03/15 06:18:43;;;;;;;15.18;5.68;;;3.60;99.90;;;;;;4989840;28;20037;-68
2022/03/15 06:21:09;;;;;;;13.77;5.32;;;3.80;99.90;;;;;;4998750;28;20037;-66
2022/03/15 06:23:36;;;;;;;12.50;5.13;;;3.90;99.90;;;;;;5009080;28;20100;-69
2022/03/15 06:26:02;;;;;;;10.55;4.88;;;4.10;99.90;;;;;;5008794;28;20049;-67
2022/03/15 06:28:28;;;;;;;12.70;5.38;;;4.10;99.90;;;;;;5008897;28;20052;-69
2022/03/15 06:30:57;;;;;;;21.73;8.25;;;4.20;99.90;;;;;;5009392;28;20144;-68
2022/03/15 06:33:23;;;;;;;20.95;9.27;;;4.40;99.90;;;;;;5008225;28;20049;-68
2022/03/15 06:35:49;;;;;;;23.25;9.65;;;3.90;99.90;;;;;;5008517;28;20042;-68
2022/03/15 06:38:14;;;;;;;18.58;7.43;;;3.50;99.90;;;;;;5008481;28;20034;-68
2022/03/15 06:40:41;;;;;;;20.00;8.05;;;3.40;99.90;;;;;;5009200;28;20033;-68
2022/03/15 06:43:09;;;;;;;24.10;8.52;;;3.60;99.90;;;;;;5009134;28;20026;-66
2022/03/15 06:45:35;;;;;;;25.30;9.43;;;3.70;99.90;;;;;;5009037;28;20115;-68
2022/03/15 06:48:01;;;;;;;31.00;10.40;;;3.80;99.90;;;;;;5010773;28;20484;-68
2022/03/15 06:50:26;;;;;;;26.42;9.85;;;3.70;99.90;;;;;;5011300;28;20029;-68
2022/03/15 06:52:52;;;;;;;23.50;9.25;;;3.60;99.90;;;;;;5012530;28;20041;-67
2022/03/15 06:55:18;;;;;;;22.55;8.93;;;3.70;99.90;;;;;;5011813;28;20416;-68
2022/03/15 06:57:44;;;;;;;23.00;8.48;;;3.70;99.90;;;;;;5012593;28;20033;-68
2022/03/15 07:00:12;;;;;;;19.70;7.78;;;3.80;99.90;;;;;;5012278;28;20033;-65
2022/03/15 07:02:38;;;;;;;17.92;7.75;;;3.90;99.90;;;;;;5012408;28;20058;-68
2022/03/15 07:05:04;;;;;;;16.55;7.13;;;4.10;99.90;;;;;;5012295;28;20482;-68
2022/03/15 07:07:30;;;;;;;16.48;7.03;;;4.30;99.90;;;;;;5011471;28;20080;-68
2022/03/15 07:09:55;;;;;;;27.08;8.18;;;4.60;99.90;;;;;;5011992;28;20045;-69
2022/03/15 07:12:22;;;;;;;20.98;7.68;;;4.80;99.90;;;;;;5011630;28;20030;-69
2022/03/15 07:14:49;;;;;;;19.92;8.60;;;5.00;99.90;;;;;;5012006;28;20449;-68
2022/03/15 07:17:15;;;;;;;23.23;8.23;;;5.20;99.90;;;;;;5011546;28;20033;-68
2022/03/15 07:19:41;;;;;;;21.20;8.35;;;5.20;99.90;;;;;;5011957;28;20026;-67
2022/03/15 07:22:07;;;;;;;20.65;7.72;;;5.10;99.90;;;;;;5011705;28;20084;-68
2022/03/15 07:24:34;;;;;;;17.02;7.78;;;5.00;99.90;;;;;;5010866;28;20040;-68
2022/03/15 07:27:00;;;;;;;20.83;8.88;;;4.90;99.90;;;;;;5011786;28;20053;-68
2022/03/15 07:29:26;;;;;;;20.48;8.77;;;5.00;99.90;;;;;;5011308;28;20464;-68
2022/03/15 07:31:51;;;;;;;19.08;8.40;;;5.10;99.90;;;;;;5010264;28;20044;-68
2022/03/15 07:34:17;;;;;;;21.52;8.52;;;5.00;99.90;;;;;;5010917;28;20472;-69
2022/03/15 07:36:43;;;;;;;17.73;8.25;;;5.10;99.90;;;;;;5011691;28;20523;-68
2022/03/15 07:39:08;;;;;;;22.15;8.90;;;5.10;99.90;;;;;;5011925;28;20025;-68
2022/03/15 07:41:39;;;;;;;17.30;8.30;;;5.10;99.90;;;;;;5010316;28;20057;-68
2022/03/15 07:44:09;;;;;;;27.88;9.82;;;5.10;99.90;;;;;;5010590;28;20452;-69
2022/03/15 07:46:36;;;;;;;18.75;8.70;;;5.20;99.90;;;;;;5013537;28;20106;-68
2022/03/15 07:49:02;;;;;;;24.52;9.43;;;5.30;99.90;;;;;;5011403;28;20030;-69
2022/03/15 07:51:28;;;;;;;24.42;9.52;;;5.40;99.90;;;;;;5010979;28;20042;-69
2022/03/15 07:53:55;;;;;;;22.17;9.13;;;5.50;99.90;;;;;;5010037;28;20030;-68
2022/03/15 07:56:20;;;;;;;18.33;9.40;;;5.60;99.90;;;;;;5009257;28;20072;-67
2022/03/15 07:58:46;;;;;;;25.38;9.23;;;5.70;99.90;;;;;;5010421;28;20054;-69
2022/03/15 08:01:12;;;;;;;24.63;10.05;;;5.80;99.90;;;;;;5011191;28;20056;-66
2022/03/15 08:03:38;;;;;;;20.05;9.43;;;5.90;99.90;;;;;;5010833;28;20057;-68
2022/03/15 08:06:04;;;;;;;20.17;9.55;;;5.90;99.90;;;;;;5009767;28;20037;-70
2022/03/15 08:08:29;;;;;;;17.60;9.25;;;6.00;99.90;;;;;;5009165;28;20026;-69
2022/03/15 08:10:55;;;;;;;20.80;9.85;;;6.00;99.90;;;;;;5011199;28;20076;-69
2022/03/15 08:13:21;;;;;;;21.30;10.15;;;6.10;99.90;;;;;;5008756;28;20076;-69
2022/03/15 08:15:47;;;;;;;19.88;9.25;;;6.20;99.90;;;;;;5010661;28;20490;-68
2022/03/15 08:18:13;;;;;;;22.55;9.43;;;6.20;99.90;;;;;;5011005;28;20112;-66
2022/03/15 08:20:39;;;;;;;19.67;9.02;;;6.30;99.90;;;;;;5010283;28;20447;-69
2022/03/15 08:23:05;;;;;;;23.92;9.68;;;6.30;99.90;;;;;;5010835;28;20026;-69
2022/03/15 08:25:31;;;;;;;21.38;9.70;;;6.30;99.90;;;;;;5013958;28;20030;-70
2022/03/15 08:27:57;;;;;;;23.02;8.80;;;6.40;99.90;;;;;;5014689;28;20040;-69
2022/03/15 08:30:23;;;;;;;24.55;10.43;;;6.50;99.90;;;;;;5011959;28;20065;-70
2022/03/15 08:32:49;;;;;;;29.90;12.10;;;6.60;99.90;;;;;;5009977;28;20034;-68
2022/03/15 08:35:15;;;;;;;18.20;9.07;;;6.70;99.90;;;;;;5008108;28;20049;-66
2022/03/15 08:37:42;;;;;;;18.77;9.00;;;6.80;99.90;;;;;;5007595;28;20448;-69
2022/03/15 08:40:09;;;;;;;22.23;9.57;;;6.90;99.90;;;;;;5007242;28;20056;-68
2022/03/15 08:42:35;;;;;;;24.60;9.75;;;6.90;99.90;;;;;;5005390;28;20614;-69
2022/03/15 08:45:01;;;;;;;27.23;11.65;;;7.00;99.90;;;;;;5007038;28;20036;-69
2022/03/15 08:47:28;;;;;;;36.10;14.00;;;7.00;99.90;;;;;;5008376;28;20033;-68
2022/03/15 08:49:55;;;;;;;23.65;10.50;;;7.20;99.90;;;;;;5010219;28;20029;-68
2022/03/15 08:52:21;;;;;;;22.60;9.13;;;7.40;99.90;;;;;;5009439;28;20038;-68
2022/03/15 08:54:46;;;;;;;26.75;9.65;;;7.50;99.90;;;;;;5010095;28;20068;-67
2022/03/15 08:57:12;;;;;;;23.20;10.10;;;7.60;99.90;;;;;;5010777;28;20032;-68
2022/03/15 08:59:38;;;;;;;22.13;10.00;;;7.70;99.90;;;;;;5008437;28;20121;-68
2022/03/15 09:02:04;;;;;;;22.75;10.57;;;7.90;99.90;;;;;;5010469;28;20085;-68
2022/03/15 09:04:30;;;;;;;32.53;10.63;;;8.10;99.90;;;;;;5009808;28;20476;-68
2022/03/15 09:06:55;;;;;;;26.35;11.02;;;8.40;99.90;;;;;;5010154;28;20033;-68
2022/03/15 09:09:24;;;;;;;21.88;10.38;;;8.60;99.90;;;;;;5009426;28;20126;-68
2022/03/15 09:11:50;;;;;;;18.67;9.02;;;8.70;99.90;;;;;;5009016;28;20109;-68
2022/03/15 09:14:16;;;;;;;26.75;8.90;;;8.80;99.90;;;;;;5009986;28;20109;-69
2022/03/15 09:16:42;;;;;;;19.98;8.75;;;8.90;99.90;;;;;;5009641;28;20037;-68
2022/03/15 09:19:09;;;;;;;24.60;9.00;;;9.00;99.90;;;;;;5010170;28;20447;-69
2022/03/15 09:21:35;;;;;;;20.60;9.82;;;9.00;99.90;;;;;;5008761;28;20034;-68
2022/03/15 09:24:01;;;;;;;22.23;8.13;;;9.10;99.90;;;;;;5010305;28;20026;-68
2022/03/15 09:26:27;;;;;;;24.20;10.23;;;9.00;99.90;;;;;;5009426;28;20036;-68
2022/03/15 09:28:52;;;;;;;23.70;10.18;;;9.20;99.90;;;;;;5009189;28;20771;-67
2022/03/15 09:31:20;;;;;;;20.42;9.93;;;9.30;99.90;;;;;;5009611;28;20062;-66
2022/03/15 09:33:46;;;;;;;20.30;9.98;;;9.40;99.90;;;;;;5009670;28;20088;-68
2022/03/15 09:36:12;;;;;;;24.05;9.85;;;9.40;99.90;;;;;;5009433;28;20034;-68
2022/03/15 09:38:38;;;;;;;26.23;10.07;;;9.40;99.90;;;;;;5008910;28;20033;-68
2022/03/15 09:41:05;;;;;;;23.50;9.68;;;9.50;99.90;;;;;;5009608;28;20049;-68
2022/03/15 09:43:36;;;;;;;24.33;9.73;;;9.50;99.90;;;;;;5008663;28;20034;-68
2022/03/15 09:46:04;;;;;;;21.60;9.60;;;9.60;99.90;;;;;;5009687;28;20033;-68
2022/03/15 09:48:30;;;;;;;21.20;9.35;;;9.70;99.90;;;;;;5008866;28;20022;-67
2022/03/15 09:50:56;;;;;;;18.60;9.32;;;9.60;99.90;;;;;;5009966;28;20034;-68
2022/03/15 09:53:22;;;;;;;22.80;9.32;;;9.70;99.90;;;;;;5008539;28;20088;-66
2022/03/15 09:55:48;;;;;;;20.08;8.82;;;9.70;99.90;;;;;;5008756;28;20052;-69
2022/03/15 09:58:22;;;;;;;19.00;8.05;;;9.80;99.90;;;;;;5009048;28;20057;-67
2022/03/15 10:00:56;;;;;;;18.73;8.48;;;9.80;99.90;;;;;;5009513;28;20038;-68
2022/03/15 10:03:22;;;;;;;21.08;8.90;;;9.90;99.90;;;;;;5009113;28;20050;-65
2022/03/15 10:05:51;;;;;;;17.80;8.90;;;9.90;99.90;;;;;;5009207;28;20034;-68
2022/03/15 10:08:18;;;;;;;21.83;8.32;;;9.90;99.90;;;;;;5008794;28;20034;-68
2022/03/15 10:10:51;;;;;;;18.08;8.23;;;9.90;99.90;;;;;;5008647;28;20030;-69
2022/03/15 10:13:19;;;;;;;21.10;7.70;;;9.90;99.90;;;;;;5009622;28;20026;-68
2022/03/15 10:15:56;;;;;;;22.75;8.32;;;9.90;99.90;;;;;;5008705;28;20030;-68
2022/03/15 10:18:21;;;;;;;13.27;6.07;;;9.90;99.90;;;;;;5009320;28;20055;-64
2022/03/15 10:20:48;;;;;;;11.48;6.40;;;9.90;99.90;;;;;;5009007;28;20026;-68
2022/03/15 10:23:16;;;;;;;14.20;6.35;;;9.90;99.90;;;;;;5011124;28;20383;-68
2022/03/15 10:25:49;;;;;;;12.43;6.30;;;9.90;99.90;;;;;;5011929;28;20042;-68
2022/03/15 10:28:16;;;;;;;15.05;6.35;;;10.00;99.90;;;;;;5012932;28;20030;-69
2022/03/15 10:30:43;;;;;;;14.27;6.32;;;10.00;99.90;;;;;;5044198;28;20030;-68
2022/03/15 10:33:09;;;;;;;11.32;5.28;;;10.00;99.90;;;;;;5013307;28;20026;-68
2022/03/15 10:35:49;;;;;;;16.92;6.25;;;10.00;99.90;;;;;;5010736;28;20042;-68
2022/03/15 10:38:15;;;;;;;17.42;6.60;;;10.00;99.90;;;;;;5012620;28;20033;-68
2022/03/15 10:40:42;;;;;;;13.75;5.80;;;10.10;99.90;;;;;;5011869;28;20905;-68
2022/03/15 10:43:14;;;;;;;11.52;5.95;;;10.10;99.90;;;;;;5012242;28;20022;-68
2022/03/15 10:45:43;;;;;;;11.95;6.10;;;10.20;99.90;;;;;;5011686;28;20034;-69
2022/03/15 10:48:19;;;;;;;15.25;6.60;;;10.20;99.90;;;;;;5012847;28;20029;-69
2022/03/15 10:50:59;;;;;;;12.02;5.78;;;10.30;99.90;;;;;;5011655;28;20606;-69
2022/03/15 10:53:35;;;;;;;11.77;5.43;;;10.40;99.90;;;;;;5011822;28;20049;-65
2022/03/15 10:56:12;;;;;;;13.52;6.13;;;10.40;99.90;;;;;;5012723;28;20030;-70
2022/03/15 10:59:05;;;;;;;13.55;5.93;;;10.50;99.90;;;;;;5011766;28;20030;-68
2022/03/15 11:01:40;;;;;;;13.10;5.82;;;10.50;99.90;;;;;;5009811;28;20066;-68
2022/03/15 11:04:08;;;;;;;14.65;5.90;;;10.50;99.90;;;;;;5012266;28;20054;-68
2022/03/15 11:06:47;;;;;;;15.57;6.07;;;10.60;99.90;;;;;;5011328;28;20038;-67
2022/03/15 11:09:24;;;;;;;14.43;5.63;;;10.70;99.90;;;;;;5012356;28;20092;-69
2022/03/15 11:11:54;;;;;;;11.05;5.40;;;10.70;99.90;;;;;;5012070;28;20048;-68
2022/03/15 11:14:55;;;;;;;15.88;6.07;;;10.70;99.90;;;;;;5012195;28;20456;-68
2022/03/15 11:17:24;;;;;;;12.77;5.55;;;10.70;99.90;;;;;;5012392;28;20048;-68
2022/03/15 11:19:52;;;;;;;9.35;5.55;;;10.70;99.90;;;;;;5011220;28;20456;-69
2022/03/15 11:22:34;;;;;;;9.70;5.10;;;10.70;99.90;;;;;;5012291;28;20372;-68
2022/03/15 11:25:08;;;;;;;12.35;5.78;;;10.70;99.90;;;;;;4992562;28;20042;-69
2022/03/15 11:27:39;;;;;;;14.77;5.93;;;10.70;99.90;;;;;;4991703;28;20084;-69
2022/03/15 11:30:07;;;;;;;10.70;5.47;;;10.70;99.90;;;;;;4992638;28;20034;-68
2022/03/15 11:32:34;;;;;;;15.00;5.93;;;10.80;99.90;;;;;;4990074;28;20030;-68
2022/03/15 11:35:01;;;;;;;14.20;5.93;;;10.80;99.90;;;;;;5007500;28;20042;-69
2022/03/15 11:37:29;;;;;;;14.10;5.65;;;10.80;99.90;;;;;;5011186;28;20081;-66
2022/03/15 11:39:55;;;;;;;15.32;6.13;;;10.80;99.90;;;;;;5011608;28;20041;-69
2022/03/15 11:42:20;;;;;;;16.45;6.30;;;10.80;99.90;;;;;;5011756;28;20034;-68
2022/03/15 11:44:55;;;;;;;12.23;5.97;;;10.70;99.90;;;;;;5010912;28;20025;-68
2022/03/15 11:47:53;;;;;;;13.98;6.75;;;10.70;99.90;;;;;;5011927;28;20036;-69
2022/03/15 11:50:48;;;;;;;14.43;6.70;;;10.60;99.90;;;;;;5011289;28;20042;-68
2022/03/15 11:53:38;;;;;;;13.60;6.30;;;10.60;99.90;;;;;;5011730;28;20030;-68
2022/03/15 11:56:14;;;;;;;16.83;6.85;;;10.50;99.90;;;;;;5011681;28;20100;-68
2022/03/15 11:58:39;;;;;;;23.70;6.75;;;10.50;99.90;;;;;;5042353;28;20041;-68
2022/03/15 12:01:09;;;;;;;15.48;5.97;;;10.50;99.90;;;;;;5011503;28;20030;-69
2022/03/15 12:03:47;;;;;;;14.85;6.40;;;10.40;99.90;;;;;;5009789;28;20100;-69
2022/03/15 12:06:23;;;;;;;11.50;5.43;;;10.40;99.90;;;;;;5010987;28;20042;-68
2022/03/15 12:09:11;;;;;;;13.20;6.15;;;10.40;99.90;;;;;;5010508;28;20097;-69
2022/03/15 12:11:39;;;;;;;11.88;6.00;;;10.20;99.90;;;;;;5009123;28;20034;-68
2022/03/15 12:14:17;;;;;;;14.55;6.20;;;10.10;99.90;;;;;;5011219;28;20026;-69
2022/03/15 12:16:47;;;;;;;16.27;6.50;;;10.10;99.90;;;;;;5010549;28;20037;-69
2022/03/15 12:19:39;;;;;;;16.65;7.38;;;10.10;99.90;;;;;;5011210;28;20021;-68
2022/03/15 12:22:09;;;;;;;20.77;7.70;;;10.00;99.90;;;;;;5010739;28;20030;-69
2022/03/15 12:24:37;;;;;;;14.70;6.40;;;10.00;99.90;;;;;;5009960;28;20045;-69
2022/03/15 12:27:08;;;;;;;18.30;7.65;;;9.90;99.90;;;;;;5010897;28;20364;-69
2022/03/15 12:29:36;;;;;;;15.65;6.95;;;9.90;99.90;;;;;;5010317;28;20114;-68
2022/03/15 12:32:14;;;;;;;14.73;7.15;;;9.90;99.90;;;;;;5010793;28;20029;-68
2022/03/15 12:34:45;;;;;;;21.05;8.38;;;9.90;99.90;;;;;;5010005;28;20052;-69
2022/03/15 12:37:11;;;;;;;19.58;8.98;;;9.80;99.90;;;;;;5010786;28;20038;-68
2022/03/15 12:39:37;;;;;;;23.27;10.00;;;9.80;99.90;;;;;;5010042;28;20026;-68
2022/03/15 12:42:21;;;;;;;23.20;11.05;;;9.90;99.90;;;;;;5010427;28;20037;-68
2022/03/15 12:45:03;;;;;;;24.48;10.85;;;10.00;99.90;;;;;;5008363;28;20029;-68
2022/03/15 12:47:31;;;;;;;24.15;10.30;;;10.00;99.90;;;;;;5010709;28;20417;-69
2022/03/15 12:50:21;;;;;;;21.98;10.05;;;9.90;99.90;;;;;;5009878;28;20033;-68